Time;durP1;ratioP1;P1;durP2;ratioP2;P2;SDS_P1;SDS_P2;PMS_P1;PMS_P2;Temp;Humidity;BMP_temperature;BMP_pressure;BME280_temperature;BME280_humidity;BME280_pressure;Samples;Min_cycle;Max_cycle;Signal;HPM_P1;HPM_P2
2022/10/11 00:01:06;;;;;;;5.57;4.85;;;;;;;;;;5069539;28;20110;-91
2022/10/11 00:03:33;;;;;;;6.13;4.82;;;;;;;;;;5072697;28;20484;-91
2022/10/11 00:06:04;;;;;;;6.07;5.05;;;;;;;;;;5072235;28;20056;-91
2022/10/11 00:08:33;;;;;;;5.82;5.28;;;;;;;;;;5072626;28;20052;-92
2022/10/11 00:11:00;;;;;;;6.03;4.63;;;;;;;;;;5056849;28;20053;-91
2022/10/11 00:13:27;;;;;;;4.75;4.13;;;;;;;;;;5051902;28;20547;-90
2022/10/11 00:15:54;;;;;;;9.45;4.75;;;;;;;;;;5057144;28;21538;-90
2022/10/11 00:18:21;;;;;;;5.63;5.13;;;;;;;;;;5072464;28;20104;-92
2022/10/11 00:20:47;;;;;;;6.20;5.38;;;;;;;;;;5059178;28;20049;-92
2022/10/11 00:23:15;;;;;;;6.55;5.20;;;;;;;;;;5052255;28;20585;-93
2022/10/11 00:25:42;;;;;;;4.90;4.40;;;;;;;;;;5052942;28;20045;-93
2022/10/11 00:28:08;;;;;;;7.35;4.43;;;;;;;;;;5053203;28;20114;-93
2022/10/11 00:30:35;;;;;;;5.75;4.80;;;;;;;;;;5052823;28;20091;-93
2022/10/11 00:33:01;;;;;;;5.82;5.13;;;;;;;;;;5052961;28;20099;-93
2022/10/11 00:35:28;;;;;;;6.07;5.53;;;;;;;;;;5062414;28;20488;-93
2022/10/11 00:37:56;;;;;;;11.13;5.40;;;;;;;;;;5073165;28;20098;-92
2022/10/11 00:40:24;;;;;;;4.80;4.30;;;;;;;;;;5072828;28;20474;-93
2022/10/11 00:42:50;;;;;;;4.95;4.53;;;;;;;;;;5073591;28;20049;-93
2022/10/11 00:45:35;;;;;;;5.05;4.63;;;;;;;;;;5072769;28;20049;-92
2022/10/11 00:48:03;;;;;;;5.80;5.28;;;;;;;;;;5073384;28;20049;-93
2022/10/11 00:50:30;;;;;;;6.05;5.45;;;;;;;;;;5072827;28;20061;-93
2022/10/11 00:52:59;;;;;;;7.35;5.72;;;;;;;;;;5072645;28;20109;-91
2022/10/11 00:55:30;;;;;;;6.57;5.70;;;;;;;;;;5072240;28;20045;-91
2022/10/11 00:57:57;;;;;;;9.10;5.22;;;;;;;;;;5072260;28;20115;-92
2022/10/11 01:00:24;;;;;;;6.50;5.20;;;;;;;;;;5064936;28;20124;-91
2022/10/11 01:02:50;;;;;;;5.75;5.28;;;;;;;;;;5052406;28;20114;-91
2022/10/11 01:05:18;;;;;;;5.22;4.72;;;;;;;;;;5058364;28;20040;-91
2022/10/11 01:07:46;;;;;;;6.20;5.78;;;;;;;;;;5068754;28;20048;-91
2022/10/11 01:10:13;;;;;;;6.55;5.95;;;;;;;;;;5052292;28;20045;-91
2022/10/11 01:12:48;;;;;;;5.65;5.15;;;;;;;;;;5055893;28;20053;-91
2022/10/11 01:15:17;;;;;;;5.40;4.40;;;;;;;;;;5061640;28;20089;-91
2022/10/11 01:17:47;;;;;;;4.70;4.30;;;;;;;;;;5077408;28;20049;-91
2022/10/11 01:20:27;;;;;;;6.18;5.60;;;;;;;;;;5070346;28;20045;-91
2022/10/11 01:23:11;;;;;;;6.22;3.97;;;;;;;;;;5055850;28;20098;-92
2022/10/11 01:25:43;;;;;;;9.70;5.30;;;;;;;;;;5055386;28;20114;-91
2022/10/11 01:28:19;;;;;;;4.32;3.83;;;;;;;;;;5055532;28;20056;-91
2022/10/11 01:30:47;;;;;;;6.18;5.60;;;;;;;;;;5055189;28;20049;-90
2022/10/11 01:33:18;;;;;;;6.82;6.15;;;;;;;;;;5055459;28;20049;-90
2022/10/11 01:35:46;;;;;;;8.45;7.07;;;;;;;;;;5055148;28;20496;-89
2022/10/11 01:38:16;;;;;;;4.63;4.25;;;;;;;;;;5055783;28;20049;-91
2022/10/11 01:40:46;;;;;;;7.18;6.57;;;;;;;;;;5063099;28;20147;-91
2022/10/11 01:43:14;;;;;;;5.57;5.07;;;;;;;;;;5075110;28;20048;-92
2022/10/11 01:45:41;;;;;;;6.03;5.32;;;;;;;;;;5075006;28;20055;-92
2022/10/11 01:48:10;;;;;;;6.03;5.43;;;;;;;;;;5075355;28;20052;-92
2022/10/11 01:50:39;;;;;;;5.70;4.80;;;;;;;;;;5068731;28;20107;-92
2022/10/11 01:53:10;;;;;;;6.65;5.40;;;;;;;;;;5055335;28;20053;-92
2022/10/11 01:55:40;;;;;;;4.85;4.22;;;;;;;;;;5055421;28;20106;-92
2022/10/11 01:58:12;;;;;;;6.18;5.70;;;;;;;;;;5055160;28;20045;-92
2022/10/11 02:00:44;;;;;;;6.80;5.25;;;;;;;;;;5061544;28;20048;-92
2022/10/11 02:03:17;;;;;;;5.70;5.03;;;;;;;;;;5075128;28;20056;-92
2022/10/11 02:05:47;;;;;;;5.20;4.78;;;;;;;;;;5074760;28;20048;-92
2022/10/11 02:08:17;;;;;;;6.85;6.32;;;;;;;;;;5075080;28;20048;-92
2022/10/11 02:10:46;;;;;;;4.88;4.40;;;;;;;;;;5068650;28;20057;-92
2022/10/11 02:13:15;;;;;;;6.22;5.45;;;;;;;;;;5055016;28;20099;-92
2022/10/11 02:15:43;;;;;;;7.57;5.70;;;;;;;;;;5060204;28;20049;-92
2022/10/11 02:18:11;;;;;;;5.50;4.35;;;;;;;;;;5074941;28;20052;-90
2022/10/11 02:20:41;;;;;;;5.75;5.22;;;;;;;;;;5069560;28;20053;-92
2022/10/11 02:23:09;;;;;;;6.13;5.53;;;;;;;;;;5054392;28;20048;-92
2022/10/11 02:25:36;;;;;;;7.10;5.53;;;;;;;;;;5058960;28;20052;-93
2022/10/11 02:28:04;;;;;;;6.57;5.95;;;;;;;;;;5075084;28;20048;-93
2022/10/11 02:30:31;;;;;;;5.55;5.00;;;;;;;;;;5070714;28;20053;-92
2022/10/11 02:32:58;;;;;;;7.78;6.05;;;;;;;;;;5054250;28;20103;-91
2022/10/11 02:35:26;;;;;;;6.63;5.97;;;;;;;;;;5054493;28;20045;-91
2022/10/11 02:37:58;;;;;;;5.63;5.13;;;;;;;;;;5054020;28;20550;-91
2022/10/11 02:40:26;;;;;;;7.53;6.78;;;;;;;;;;5056021;28;20045;-90
2022/10/11 02:42:57;;;;;;;5.97;5.03;;;;;;;;;;5074005;28;20049;-90
2022/10/11 02:45:25;;;;;;;7.10;6.50;;;;;;;;;;5073642;28;20479;-90
2022/10/11 02:47:52;;;;;;;6.63;6.03;;;;;;;;;;5073975;28;20049;-91
2022/10/11 02:50:19;;;;;;;7.00;5.32;;;;;;;;;;5054678;28;20052;-91
2022/10/11 02:52:45;;;;;;;5.57;5.15;;;;;;;;;;5054114;28;20065;-91
2022/10/11 02:55:13;;;;;;;6.05;4.70;;;;;;;;;;5054043;28;20114;-92
2022/10/11 02:57:39;;;;;;;5.35;4.72;;;;;;;;;;5053880;28;20052;-91
2022/10/11 03:00:07;;;;;;;6.18;5.57;;;;;;;;;;5054188;28;20115;-91
2022/10/11 03:02:34;;;;;;;5.90;4.53;;;;;;;;;;5072566;28;20080;-91
2022/10/11 03:05:01;;;;;;;6.80;4.97;;;;;;;;;;5058270;28;20053;-91
2022/10/11 03:07:27;;;;;;;6.47;5.25;;;;;;;;;;5053306;28;20053;-91
2022/10/11 03:09:53;;;;;;;6.82;5.05;;;;;;;;;;5053557;28;20451;-92
2022/10/11 03:12:21;;;;;;;7.95;5.25;;;;;;;;;;5053747;28;20110;-92
2022/10/11 03:14:48;;;;;;;7.05;5.25;;;;;;;;;;5053654;28;20535;-92
2022/10/11 03:17:14;;;;;;;4.93;4.32;;;;;;;;;;5055350;28;20048;-93
2022/10/11 03:19:41;;;;;;;8.48;5.55;;;;;;;;;;5065800;28;20052;-92
2022/10/11 03:22:07;;;;;;;8.05;6.13;;;;;;;;;;5067709;28;20049;-92
2022/10/11 03:24:34;;;;;;;4.85;4.45;;;;;;;;;;5073183;28;20450;-92
2022/10/11 03:27:00;;;;;;;6.50;5.78;;;;;;;;;;5061140;28;20053;-92
2022/10/11 03:29:28;;;;;;;5.63;5.03;;;;;;;;;;5053746;28;20053;-92
2022/10/11 03:31:55;;;;;;;6.65;5.05;;;;;;;;;;5065469;28;20045;-92
2022/10/11 03:34:21;;;;;;;5.97;4.85;;;;;;;;;;5065169;28;20045;-90
2022/10/11 03:36:48;;;;;;;6.50;5.45;;;;;;;;;;5063899;28;20107;-90
2022/10/11 03:39:14;;;;;;;5.93;4.88;;;;;;;;;;5072744;28;20052;-91
2022/10/11 03:41:41;;;;;;;5.55;4.60;;;;;;;;;;5073324;28;20122;-90
2022/10/11 03:44:07;;;;;;;6.13;4.38;;;;;;;;;;5072811;28;20098;-90
2022/10/11 03:46:35;;;;;;;6.45;5.82;;;;;;;;;;5072158;28;20045;-90
2022/10/11 03:49:01;;;;;;;5.55;4.10;;;;;;;;;;5072921;28;20048;-90
2022/10/11 03:51:28;;;;;;;7.05;5.97;;;;;;;;;;5072363;28;20094;-90
2022/10/11 03:53:54;;;;;;;7.20;6.57;;;;;;;;;;5072788;28;20045;-91
2022/10/11 03:56:21;;;;;;;7.80;7.20;;;;;;;;;;5057608;28;20041;-90
2022/10/11 03:58:47;;;;;;;8.43;5.88;;;;;;;;;;5052917;28;20041;-91
2022/10/11 04:01:14;;;;;;;6.60;6.00;;;;;;;;;;5052591;28;20098;-91
2022/10/11 04:03:42;;;;;;;4.35;3.95;;;;;;;;;;5053392;28;20107;-92
2022/10/11 04:06:08;;;;;;;4.72;4.28;;;;;;;;;;5053201;28;20467;-91
2022/10/11 04:08:35;;;;;;;7.18;5.57;;;;;;;;;;5052757;28;20052;-91
2022/10/11 04:11:01;;;;;;;7.28;6.63;;;;;;;;;;5055035;28;20061;-90
2022/10/11 04:13:28;;;;;;;5.57;4.63;;;;;;;;;;5071879;28;20075;-91
2022/10/11 04:15:54;;;;;;;7.05;6.03;;;;;;;;;;5071190;28;20044;-91
2022/10/11 04:18:21;;;;;;;5.18;4.75;;;;;;;;;;5052653;28;20102;-91
2022/10/11 04:20:49;;;;;;;8.98;5.68;;;;;;;;;;5052720;28;20056;-91
2022/10/11 04:23:15;;;;;;;6.18;4.93;;;;;;;;;;5052470;28;20056;-90
2022/10/11 04:25:41;;;;;;;8.23;5.57;;;;;;;;;;5052372;28;20095;-91
2022/10/11 04:28:08;;;;;;;6.07;5.15;;;;;;;;;;5052540;28;20555;-91
2022/10/11 04:30:34;;;;;;;8.00;7.13;;;;;;;;;;5063387;28;20571;-90
2022/10/11 04:33:01;;;;;;;5.57;5.05;;;;;;;;;;5072253;28;20045;-91
2022/10/11 04:35:28;;;;;;;6.45;5.82;;;;;;;;;;5072967;28;20374;-90
2022/10/11 04:37:56;;;;;;;5.88;5.35;;;;;;;;;;5072340;28;20103;-90
2022/10/11 04:40:22;;;;;;;6.00;5.38;;;;;;;;;;5072620;28;20110;-90
2022/10/11 04:42:52;;;;;;;7.35;6.85;;;;;;;;;;5072401;28;20051;-90
2022/10/11 04:45:19;;;;;;;5.40;4.90;;;;;;;;;;5073153;28;20080;-91
2022/10/11 04:47:45;;;;;;;7.05;4.80;;;;;;;;;;5071099;28;20048;-91
2022/10/11 04:50:11;;;;;;;6.53;4.18;;;;;;;;;;5076615;28;20071;-91
2022/10/11 04:52:38;;;;;;;6.82;4.47;;;;;;;;;;5075590;28;20098;-89
2022/10/11 04:55:06;;;;;;;7.45;6.45;;;;;;;;;;5076032;28;20049;-90
2022/10/11 04:57:33;;;;;;;6.28;5.68;;;;;;;;;;5063257;28;20565;-89
2022/10/11 04:59:59;;;;;;;7.00;6.38;;;;;;;;;;5055659;28;20045;-89
2022/10/11 05:02:26;;;;;;;5.28;4.78;;;;;;;;;;5055569;28;20496;-89
2022/10/11 05:04:52;;;;;;;7.47;5.97;;;;;;;;;;5056086;28;20056;-89
2022/10/11 05:07:19;;;;;;;7.50;6.47;;;;;;;;;;5065291;28;20045;-89
2022/10/11 05:09:45;;;;;;;9.25;5.70;;;;;;;;;;5075764;28;20061;-89
2022/10/11 05:12:13;;;;;;;6.20;5.25;;;;;;;;;;5075425;28;20102;-91
2022/10/11 05:14:39;;;;;;;9.07;6.07;;;;;;;;;;5076246;28;20044;-91
2022/10/11 05:17:06;;;;;;;7.22;6.40;;;;;;;;;;5068194;28;20053;-90
2022/10/11 05:19:32;;;;;;;5.88;5.40;;;;;;;;;;5055790;28;20114;-91
2022/10/11 05:21:59;;;;;;;6.30;5.70;;;;;;;;;;5062377;28;20045;-91
2022/10/11 05:24:25;;;;;;;7.07;6.20;;;;;;;;;;5076082;28;20048;-91
2022/10/11 05:26:52;;;;;;;8.52;7.13;;;;;;;;;;5075316;28;20056;-89
2022/10/11 05:29:20;;;;;;;8.05;6.78;;;;;;;;;;5074756;28;20446;-90
2022/10/11 05:31:46;;;;;;;6.57;5.97;;;;;;;;;;5074674;28;20071;-88
2022/10/11 05:34:13;;;;;;;6.07;5.47;;;;;;;;;;5073380;28;20044;-88
2022/10/11 05:36:39;;;;;;;6.75;5.72;;;;;;;;;;5074678;28;20181;-87
2022/10/11 05:39:06;;;;;;;5.93;5.32;;;;;;;;;;5075193;28;20125;-89
2022/10/11 05:41:32;;;;;;;8.77;5.47;;;;;;;;;;5075706;28;20110;-89
2022/10/11 05:43:59;;;;;;;7.95;5.43;;;;;;;;;;5075125;28;20378;-89
2022/10/11 05:46:26;;;;;;;8.40;7.28;;;;;;;;;;5075220;28;20044;-89
2022/10/11 05:48:53;;;;;;;5.18;4.63;;;;;;;;;;5070135;28;20053;-90
2022/10/11 05:51:19;;;;;;;6.45;4.55;;;;;;;;;;5055100;28;20053;-89
2022/10/11 05:53:46;;;;;;;9.98;5.85;;;;;;;;;;5059173;28;20057;-89
2022/10/11 05:56:18;;;;;;;8.05;5.82;;;;;;;;;;5073995;28;20426;-89
2022/10/11 05:58:44;;;;;;;8.70;5.70;;;;;;;;;;5074892;28;20106;-88
2022/10/11 06:01:15;;;;;;;8.93;6.57;;;;;;;;;;5075121;28;20086;-89
2022/10/11 06:03:43;;;;;;;8.38;7.22;;;;;;;;;;5074541;28;20061;-89
2022/10/11 06:06:10;;;;;;;6.93;5.28;;;;;;;;;;5071836;28;20451;-88
2022/10/11 06:08:36;;;;;;;7.03;6.05;;;;;;;;;;5072129;28;20110;-89
2022/10/11 06:11:09;;;;;;;7.30;6.07;;;;;;;;;;5074704;28;20052;-89
2022/10/11 06:13:35;;;;;;;10.05;8.38;;;;;;;;;;5057606;28;20041;-89
2022/10/11 06:16:03;;;;;;;7.53;6.18;;;;;;;;;;5054136;28;20460;-89
2022/10/11 06:18:30;;;;;;;6.43;5.82;;;;;;;;;;5070511;28;20052;-89
2022/10/11 06:20:59;;;;;;;9.07;5.88;;;;;;;;;;5074302;28;20118;-89
2022/10/11 06:23:25;;;;;;;6.30;5.70;;;;;;;;;;5065807;28;20079;-89
2022/10/11 06:25:55;;;;;;;8.00;6.90;;;;;;;;;;5054500;28;20102;-90
2022/10/11 06:28:22;;;;;;;7.55;6.43;;;;;;;;;;5054362;28;20063;-89
2022/10/11 06:30:48;;;;;;;7.03;6.40;;;;;;;;;;5054250;28;20493;-90
2022/10/11 06:33:15;;;;;;;7.30;6.60;;;;;;;;;;5054298;28;20129;-89
2022/10/11 06:35:41;;;;;;;7.57;6.43;;;;;;;;;;5053832;28;20111;-89
2022/10/11 06:38:09;;;;;;;8.65;7.00;;;;;;;;;;5054201;28;20057;-89
2022/10/11 06:40:36;;;;;;;6.95;6.25;;;;;;;;;;5054156;28;20040;-89
2022/10/11 06:43:02;;;;;;;6.63;5.90;;;;;;;;;;5053854;28;20115;-89
2022/10/11 06:45:29;;;;;;;6.68;5.70;;;;;;;;;;5054255;28;20052;-89
2022/10/11 06:47:55;;;;;;;8.00;7.15;;;;;;;;;;5053827;28;20091;-89
2022/10/11 06:50:22;;;;;;;7.88;5.97;;;;;;;;;;5053524;28;20558;-89
2022/10/11 06:52:48;;;;;;;8.95;6.40;;;;;;;;;;5054034;28;20056;-88
2022/10/11 06:55:16;;;;;;;10.10;7.38;;;;;;;;;;5053981;28;20045;-89
2022/10/11 06:57:42;;;;;;;7.35;6.18;;;;;;;;;;5060339;28;20094;-88
2022/10/11 07:00:10;;;;;;;7.38;6.13;;;;;;;;;;5073785;28;20110;-89
2022/10/11 07:02:36;;;;;;;8.55;6.88;;;;;;;;;;5067725;28;20053;-89
2022/10/11 07:05:03;;;;;;;8.63;7.35;;;;;;;;;;5053277;28;20542;-89
2022/10/11 07:07:29;;;;;;;10.55;6.70;;;;;;;;;;5053103;28;20056;-89
2022/10/11 07:09:55;;;;;;;9.65;7.35;;;;;;;;;;5052919;28;20060;-89
2022/10/11 07:12:23;;;;;;;11.50;8.55;;;;;;;;;;5053348;28;20045;-89
2022/10/11 07:14:50;;;;;;;10.98;7.07;;;;;;;;;;5053290;28;20052;-89
2022/10/11 07:17:16;;;;;;;15.45;7.72;;;;;;;;;;5053099;28;20094;-89
2022/10/11 07:19:43;;;;;;;8.13;7.18;;;;;;;;;;5053098;28;20060;-89
2022/10/11 07:22:09;;;;;;;10.23;6.65;;;;;;;;;;5058443;28;20044;-88
2022/10/11 07:24:36;;;;;;;11.93;7.07;;;;;;;;;;5073221;28;20052;-88
2022/10/11 07:27:02;;;;;;;7.40;6.18;;;;;;;;;;5072911;28;20052;-89
2022/10/11 07:29:30;;;;;;;9.25;6.60;;;;;;;;;;5066299;28;20059;-88
2022/10/11 07:31:57;;;;;;;8.88;6.25;;;;;;;;;;5073339;28;20109;-88
2022/10/11 07:34:23;;;;;;;11.02;6.25;;;;;;;;;;5053471;28;20049;-89
2022/10/11 07:36:50;;;;;;;8.60;7.68;;;;;;;;;;5051772;28;20110;-88
2022/10/11 07:39:16;;;;;;;9.32;7.13;;;;;;;;;;5066446;28;20053;-88
2022/10/11 07:41:43;;;;;;;10.60;8.00;;;;;;;;;;5072032;28;20106;-88
2022/10/11 07:44:09;;;;;;;9.02;8.05;;;;;;;;;;5071810;28;20053;-89
2022/10/11 07:46:37;;;;;;;10.27;7.25;;;;;;;;;;5053896;28;20053;-90
2022/10/11 07:49:04;;;;;;;12.27;6.70;;;;;;;;;;5067651;28;20052;-89
2022/10/11 07:51:30;;;;;;;10.90;7.65;;;;;;;;;;5071756;28;20102;-89
2022/10/11 07:53:56;;;;;;;9.63;8.65;;;;;;;;;;5071586;28;20101;-90
2022/10/11 07:56:24;;;;;;;8.40;7.45;;;;;;;;;;5071349;28;20053;-90
2022/10/11 07:58:51;;;;;;;6.72;6.03;;;;;;;;;;5060359;28;20052;-89
2022/10/11 08:01:17;;;;;;;8.10;6.28;;;;;;;;;;5051888;28;20124;-89
2022/10/11 08:03:45;;;;;;;7.47;4.78;;;;;;;;;;5052003;28;20098;-87
2022/10/11 08:06:14;;;;;;;12.75;7.72;;;;;;;;;;5051065;28;20053;-87
2022/10/11 08:08:40;;;;;;;11.07;7.40;;;;;;;;;;5062574;28;20056;-87
2022/10/11 08:11:07;;;;;;;9.02;7.18;;;;;;;;;;5051236;28;20052;-88
2022/10/11 08:13:34;;;;;;;9.95;8.93;;;;;;;;;;5051536;28;20049;-87
2022/10/11 08:16:18;;;;;;;69.88;27.42;;;;;;;;;;5051070;28;20559;-88
2022/10/11 08:18:45;;;;;;;14.23;10.10;;;;;;;;;;5051317;28;20055;-88
2022/10/11 08:21:13;;;;;;;10.40;7.75;;;;;;;;;;5062418;28;20113;-88
2022/10/11 08:23:40;;;;;;;10.93;7.82;;;;;;;;;;5061210;28;20099;-88
2022/10/11 08:26:07;;;;;;;10.30;7.25;;;;;;;;;;5052159;28;20496;-88
2022/10/11 08:28:33;;;;;;;12.52;9.48;;;;;;;;;;5064960;28;20056;-87
2022/10/11 08:31:00;;;;;;;11.18;8.63;;;;;;;;;;5070802;28;20106;-88
2022/10/11 08:33:27;;;;;;;9.32;7.43;;;;;;;;;;5051387;28;20045;-88
2022/10/11 08:35:56;;;;;;;13.40;9.93;;;;;;;;;;5050576;28;20079;-88
2022/10/11 08:38:22;;;;;;;17.27;10.70;;;;;;;;;;5051354;28;20049;-88
2022/10/11 08:40:50;;;;;;;10.15;8.93;;;;;;;;;;5050666;28;20057;-89
2022/10/11 08:43:26;;;;;;;13.43;11.48;;;;;;;;;;5051501;28;20048;-88
2022/10/11 08:45:56;;;;;;;10.63;9.50;;;;;;;;;;5063556;28;20447;-88
2022/10/11 08:48:26;;;;;;;10.25;8.63;;;;;;;;;;5050961;28;20554;-88
2022/10/11 08:50:53;;;;;;;10.50;8.40;;;;;;;;;;5050809;28;20482;-89
2022/10/11 08:53:27;;;;;;;13.18;8.07;;;;;;;;;;5056870;28;20102;-88
2022/10/11 08:55:54;;;;;;;10.02;7.82;;;;;;;;;;5069786;28;20139;-88
2022/10/11 08:58:23;;;;;;;12.75;8.38;;;;;;;;;;5071002;28;20045;-88
2022/10/11 09:00:51;;;;;;;11.10;8.25;;;;;;;;;;5070585;28;20485;-88
2022/10/11 09:03:28;;;;;;;9.77;7.03;;;;;;;;;;5053337;28;20048;-88
2022/10/11 09:06:00;;;;;;;8.18;7.20;;;;;;;;;;5050881;28;20102;-88
2022/10/11 09:08:35;;;;;;;11.75;8.05;;;;;;;;;;5053629;28;20041;-89
2022/10/11 09:11:06;;;;;;;9.40;8.35;;;;;;;;;;5071165;28;20106;-88
2022/10/11 09:13:42;;;;;;;9.57;7.97;;;;;;;;;;5066711;28;20040;-90
2022/10/11 09:16:14;;;;;;;10.43;8.18;;;;;;;;;;5050334;28;20132;-89
2022/10/11 09:18:49;;;;;;;10.05;8.07;;;;;;;;;;5050607;28;20048;-88
2022/10/11 09:21:19;;;;;;;10.30;9.10;;;;;;;;;;5053345;28;20496;-88
2022/10/11 09:24:02;;;;;;;12.80;9.80;;;;;;;;;;5063486;28;20049;-88
2022/10/11 09:26:33;;;;;;;8.48;6.45;;;;;;;;;;5050407;28;20057;-88
2022/10/11 09:28:59;;;;;;;;;;;;;;;;;;5051217;28;20442;-88
2022/10/11 09:31:26;;;;;;;10.38;6.68;;;;;;;;;;5050940;28;19929;-88
2022/10/11 09:33:52;;;;;;;11.35;7.68;;;;;;;;;;5054424;28;20211;-86
2022/10/11 09:36:22;;;;;;;10.05;8.23;;;;;;;;;;5053886;28;20053;-87
2022/10/11 09:38:52;;;;;;;7.88;7.07;;;;;;;;;;5054324;28;20053;-87
2022/10/11 09:41:24;;;;;;;7.88;6.90;;;;;;;;;;5054251;28;20045;-87
2022/10/11 09:43:51;;;;;;;8.50;5.90;;;;;;;;;;5056887;28;20056;-86
2022/10/11 09:46:20;;;;;;;10.82;6.97;;;;;;;;;;5064888;28;20496;-86
2022/10/11 09:48:47;;;;;;;9.88;7.57;;;;;;;;;;5054085;28;20099;-87
2022/10/11 09:51:16;;;;;;;7.28;6.43;;;;;;;;;;5053725;28;20056;-87
2022/10/11 09:53:50;;;;;;;10.60;6.88;;;;;;;;;;5054161;28;20114;-86
2022/10/11 09:56:17;;;;;;;11.63;7.35;;;;;;;;;;5062755;28;20099;-86
2022/10/11 09:58:45;;;;;;;9.55;6.35;;;;;;;;;;5053563;28;20471;-87
2022/10/11 10:01:12;;;;;;;7.78;6.40;;;;;;;;;;5053483;28;20070;-86
2022/10/11 10:03:40;;;;;;;9.52;5.90;;;;;;;;;;5064877;28;20051;-86
2022/10/11 10:06:08;;;;;;;7.60;6.90;;;;;;;;;;5072750;28;20518;-86
2022/10/11 10:08:34;;;;;;;7.50;6.20;;;;;;;;;;5073245;28;20553;-86
2022/10/11 10:11:02;;;;;;;7.68;6.88;;;;;;;;;;5073600;28;20094;-86
2022/10/11 10:13:41;;;;;;;11.23;6.15;;;;;;;;;;5073346;28;20056;-86
2022/10/11 10:16:18;;;;;;;7.97;5.90;;;;;;;;;;5072786;28;20431;-87
2022/10/11 10:18:49;;;;;;;8.93;7.15;;;;;;;;;;5067319;28;20541;-87
2022/10/11 10:21:16;;;;;;;10.43;6.07;;;;;;;;;;5058509;28;20057;-86
2022/10/11 10:23:43;;;;;;;7.50;6.63;;;;;;;;;;5056841;28;20040;-88
2022/10/11 10:26:11;;;;;;;8.25;6.75;;;;;;;;;;5053349;28;20053;-86
2022/10/11 10:28:38;;;;;;;9.52;7.13;;;;;;;;;;5057186;28;20435;-88
2022/10/11 10:31:04;;;;;;;8.65;6.50;;;;;;;;;;5052416;28;20500;-88
2022/10/11 10:33:33;;;;;;;7.97;6.82;;;;;;;;;;5055978;28;20048;-88
2022/10/11 10:36:01;;;;;;;7.82;6.53;;;;;;;;;;5052723;28;20796;-88
2022/10/11 10:38:29;;;;;;;10.10;6.93;;;;;;;;;;5053050;28;20095;-87
2022/10/11 10:40:57;;;;;;;8.20;6.43;;;;;;;;;;5053209;28;20055;-88
2022/10/11 10:43:24;;;;;;;10.00;6.82;;;;;;;;;;5053592;28;20056;-88
2022/10/11 10:46:09;;;;;;;8.52;6.95;;;;;;;;;;5062213;28;20045;-88
2022/10/11 10:48:41;;;;;;;8.10;6.15;;;;;;;;;;5055687;28;20094;-87
2022/10/11 10:51:13;;;;;;;8.70;6.05;;;;;;;;;;5072209;28;20102;-87
2022/10/11 10:53:40;;;;;;;8.10;7.30;;;;;;;;;;5071064;28;20048;-88
2022/10/11 10:56:10;;;;;;;8.93;8.05;;;;;;;;;;5062477;28;20381;-88
2022/10/11 10:58:45;;;;;;;7.70;5.68;;;;;;;;;;5071846;28;20055;-87
2022/10/11 11:01:14;;;;;;;7.63;6.93;;;;;;;;;;5071959;28;20048;-87
2022/10/11 11:03:44;;;;;;;11.20;7.22;;;;;;;;;;5069653;28;20056;-88
2022/10/11 11:06:17;;;;;;;7.95;6.60;;;;;;;;;;5053472;28;20052;-88
2022/10/11 11:08:50;;;;;;;7.72;6.55;;;;;;;;;;5067167;28;20450;-88
2022/10/11 11:11:25;;;;;;;9.02;7.85;;;;;;;;;;5086516;28;20114;-88
2022/10/11 11:13:56;;;;;;;11.73;8.00;;;;;;;;;;5064025;28;20504;-88
2022/10/11 11:16:28;;;;;;;7.07;5.55;;;;;;;;;;5066522;28;20113;-88
2022/10/11 11:18:58;;;;;;;10.63;5.63;;;;;;;;;;5069788;28;20044;-88
2022/10/11 11:21:30;;;;;;;10.95;6.47;;;;;;;;;;5073510;28;20094;-87
2022/10/11 11:24:01;;;;;;;11.52;6.35;;;;;;;;;;5064998;28;20052;-87
2022/10/11 11:26:34;;;;;;;8.95;6.78;;;;;;;;;;5054488;28;20049;-87
2022/10/11 11:29:09;;;;;;;12.65;6.30;;;;;;;;;;5068890;28;20044;-87
2022/10/11 11:31:41;;;;;;;8.20;6.20;;;;;;;;;;5067112;28;20060;-87
2022/10/11 11:34:13;;;;;;;8.05;6.32;;;;;;;;;;5065342;28;20049;-88
2022/10/11 11:36:42;;;;;;;7.30;5.57;;;;;;;;;;5067730;28;20052;-88
2022/10/11 11:39:13;;;;;;;11.40;6.05;;;;;;;;;;5069111;28;20045;-88
2022/10/11 11:41:40;;;;;;;7.88;6.40;;;;;;;;;;5060379;28;20048;-88
2022/10/11 11:44:10;;;;;;;8.77;6.00;;;;;;;;;;5069008;28;20056;-88
2022/10/11 11:46:40;;;;;;;6.50;5.85;;;;;;;;;;5064022;28;20049;-88
2022/10/11 11:49:12;;;;;;;7.53;6.43;;;;;;;;;;5062239;28;20052;-87
2022/10/11 11:51:42;;;;;;;8.70;6.47;;;;;;;;;;5060728;28;20052;-88
2022/10/11 11:54:19;;;;;;;6.82;6.20;;;;;;;;;;5068148;28;20118;-87
2022/10/11 11:56:49;;;;;;;8.38;6.05;;;;;;;;;;5068022;28;20053;-88
2022/10/11 11:59:20;;;;;;;10.02;5.70;;;;;;;;;;5067511;28;20048;-87
2022/10/11 12:01:52;;;;;;;6.32;4.90;;;;;;;;;;5059831;28;20775;-88
2022/10/11 12:04:21;;;;;;;8.00;6.32;;;;;;;;;;5070817;28;20078;-87
2022/10/11 12:06:58;;;;;;;6.88;6.18;;;;;;;;;;5071448;28;20514;-87
2022/10/11 12:09:25;;;;;;;8.73;5.93;;;;;;;;;;5074895;28;20154;-87
2022/10/11 12:11:54;;;;;;;6.15;5.50;;;;;;;;;;5052031;28;20527;-88
2022/10/11 12:14:26;;;;;;;7.93;6.95;;;;;;;;;;5060414;28;20076;-87
2022/10/11 12:20:01;;;;;;;6.63;5.95;;;;;;;;;;5049428;28;20056;-89
2022/10/11 12:22:41;;;;;;;8.43;6.00;;;;;;;;;;5051161;28;20052;-88
2022/10/11 12:25:27;;;;;;;9.00;6.30;;;;;;;;;;5051228;28;20049;-88
2022/10/11 12:27:54;;;;;;;8.85;7.97;;;;;;;;;;5059288;28;20049;-88
2022/10/11 12:30:39;;;;;;;14.30;9.18;;;;;;;;;;5050527;28;20095;-89
2022/10/11 12:33:12;;;;;;;14.80;8.73;;;;;;;;;;5057265;28;20109;-88
2022/10/11 12:35:53;;;;;;;12.40;8.27;;;;;;;;;;5058654;28;20044;-88
2022/10/11 12:38:22;;;;;;;12.32;8.18;;;;;;;;;;5050840;28;20131;-88
2022/10/11 12:40:50;;;;;;;9.82;7.75;;;;;;;;;;5051278;28;20045;-89
2022/10/11 12:43:25;;;;;;;8.32;6.35;;;;;;;;;;5049957;28;20439;-86
2022/10/11 12:45:51;;;;;;;7.15;5.95;;;;;;;;;;5051103;28;20103;-86
2022/10/11 12:48:22;;;;;;;9.13;7.53;;;;;;;;;;5051643;28;20412;-86
2022/10/11 12:50:53;;;;;;;9.27;6.50;;;;;;;;;;5051123;28;20079;-88
2022/10/11 12:53:28;;;;;;;7.53;6.82;;;;;;;;;;5060779;28;20052;-89
2022/10/11 12:55:59;;;;;;;12.15;9.68;;;;;;;;;;5051545;28;20095;-89
2022/10/11 12:58:27;;;;;;;9.48;7.50;;;;;;;;;;5050714;28;20052;-86
2022/10/11 13:01:11;;;;;;;10.75;6.20;;;;;;;;;;5050846;28;20760;-87
2022/10/11 13:03:39;;;;;;;10.77;5.88;;;;;;;;;;5053954;28;20049;-85
2022/10/11 13:06:10;;;;;;;6.00;5.40;;;;;;;;;;5050762;28;20052;-86
2022/10/11 13:08:42;;;;;;;7.05;6.13;;;;;;;;;;5054886;28;20049;-86
2022/10/11 13:11:09;;;;;;;5.72;5.00;;;;;;;;;;5068347;28;20048;-86
2022/10/11 13:13:38;;;;;;;5.97;5.47;;;;;;;;;;5062396;28;20413;-86
2022/10/11 13:16:08;;;;;;;6.28;5.72;;;;;;;;;;5057839;28;20097;-87
2022/10/11 13:18:34;;;;;;;4.95;4.55;;;;;;;;;;5063263;28;20076;-86
2022/10/11 13:21:01;;;;;;;6.75;6.10;;;;;;;;;;5061845;28;20053;-86
2022/10/11 13:23:29;;;;;;;5.35;4.85;;;;;;;;;;5062208;28;20052;-86
2022/10/11 13:25:57;;;;;;;6.78;6.00;;;;;;;;;;5074429;28;20194;-86
2022/10/11 13:28:23;;;;;;;3.55;3.25;;;;;;;;;;5074169;28;20364;-86
2022/10/11 13:30:52;;;;;;;5.63;5.13;;;;;;;;;;5061291;28;20115;-87
2022/10/11 13:33:19;;;;;;;6.63;4.07;;;;;;;;;;5054229;28;20057;-87
2022/10/11 13:35:47;;;;;;;7.30;4.07;;;;;;;;;;5069478;28;20052;-86
2022/10/11 13:38:18;;;;;;;6.43;4.05;;;;;;;;;;5074588;28;20044;-87
2022/10/11 13:40:44;;;;;;;4.60;3.67;;;;;;;;;;5063843;28;20178;-86
2022/10/11 13:43:14;;;;;;;5.78;5.18;;;;;;;;;;5060393;28;20040;-86
2022/10/11 13:45:41;;;;;;;4.90;3.92;;;;;;;;;;5070768;28;20055;-87
2022/10/11 13:48:13;;;;;;;5.05;4.55;;;;;;;;;;5074099;28;20529;-87
2022/10/11 13:50:40;;;;;;;8.00;5.65;;;;;;;;;;5054018;28;20048;-87
2022/10/11 13:53:21;;;;;;;4.40;4.00;;;;;;;;;;5056660;28;20124;-87
2022/10/11 13:55:50;;;;;;;7.00;4.72;;;;;;;;;;5062052;28;20099;-87
2022/10/11 13:58:21;;;;;;;7.15;4.90;;;;;;;;;;5054491;28;20098;-87
2022/10/11 14:00:54;;;;;;;5.15;4.38;;;;;;;;;;5054071;28;20045;-86
2022/10/11 14:03:21;;;;;;;4.45;4.00;;;;;;;;;;5054004;28;20049;-87
2022/10/11 14:05:53;;;;;;;5.95;5.45;;;;;;;;;;5053975;28;20095;-87
2022/10/11 14:08:21;;;;;;;6.80;5.47;;;;;;;;;;5053842;28;20045;-87
2022/10/11 14:10:49;;;;;;;6.28;3.90;;;;;;;;;;5054083;28;20059;-86
2022/10/11 14:13:24;;;;;;;8.48;7.68;;;;;;;;;;5053866;28;20523;-87
2022/10/11 14:16:04;;;;;;;4.72;4.32;;;;;;;;;;5053793;28;20182;-87
2022/10/11 14:18:42;;;;;;;5.85;4.15;;;;;;;;;;5053435;28;20064;-87
2022/10/11 14:21:33;;;;;;;4.72;4.32;;;;;;;;;;5053422;28;20089;-87
2022/10/11 14:24:01;;;;;;;7.20;3.95;;;;;;;;;;5038359;28;20044;-89
2022/10/11 14:26:31;;;;;;;8.13;4.95;;;;;;;;;;5053651;28;20060;-87
2022/10/11 14:28:59;;;;;;;5.40;4.90;;;;;;;;;;5053653;28;20103;-87
2022/10/11 14:31:26;;;;;;;5.72;5.13;;;;;;;;;;5053319;28;20884;-88
2022/10/11 14:33:53;;;;;;;5.97;4.35;;;;;;;;;;5053765;28;20048;-87
2022/10/11 14:36:21;;;;;;;6.10;5.65;;;;;;;;;;5053212;28;20187;-87
2022/10/11 14:38:48;;;;;;;6.20;3.58;;;;;;;;;;5053527;28;20049;-86
2022/10/11 14:41:14;;;;;;;4.97;4.47;;;;;;;;;;5053225;28;20060;-87
2022/10/11 14:43:41;;;;;;;5.22;4.72;;;;;;;;;;5053050;28;20447;-86
2022/10/11 14:46:10;;;;;;;4.28;3.85;;;;;;;;;;5053192;28;20102;-89
2022/10/11 14:48:37;;;;;;;4.85;4.15;;;;;;;;;;5053144;28;20554;-88
2022/10/11 14:51:04;;;;;;;4.22;3.60;;;;;;;;;;5052260;28;20411;-88
2022/10/11 14:53:31;;;;;;;7.38;6.25;;;;;;;;;;5067365;28;20052;-88